Time;durP1;ratioP1;P1;durP2;ratioP2;P2;SDS_P1;SDS_P2;PMS_P1;PMS_P2;Temp;Humidity;BMP_temperature;BMP_pressure;BME280_temperature;BME280_humidity;BME280_pressure;Samples;Min_cycle;Max_cycle;Signal;HPM_P1;HPM_P2
2023/04/24 00:01:42;;;;;;;19.85;18.05;;;;;;;9.64;100.00;99889.13;5091597;28;20020;-58
2023/04/24 00:04:10;;;;;;;19.38;17.33;;;;;;;9.65;100.00;99887.34;5092937;28;20075;-58
2023/04/24 00:06:42;;;;;;;19.63;17.88;;;;;;;9.67;100.00;99888.91;5092110;28;20031;-58
2023/04/24 00:09:09;;;;;;;20.00;17.90;;;;;;;9.55;100.00;99866.78;5091307;28;20020;-58
2023/04/24 00:11:36;;;;;;;19.27;17.27;;;;;;;9.66;99.51;99884.56;5091263;28;20016;-58
2023/04/24 00:14:02;;;;;;;21.23;19.05;;;;;;;9.63;100.00;99886.59;5090999;28;20040;-58
2023/04/24 00:16:27;;;;;;;21.67;19.42;;;;;;;9.60;99.71;99890.34;5092354;28;20039;-58
2023/04/24 00:18:55;;;;;;;21.25;19.15;;;;;;;9.53;99.69;99876.69;5091190;28;20383;-58
2023/04/24 00:21:25;;;;;;;22.05;19.92;;;;;;;9.52;100.00;99885.56;5090513;28;20020;-58
2023/04/24 00:23:51;;;;;;;22.75;20.63;;;;;;;9.47;100.00;99892.19;5092125;28;20020;-58
2023/04/24 00:26:16;;;;;;;23.98;21.48;;;;;;;9.40;100.00;99885.66;5092111;28;20176;-58
2023/04/24 00:28:41;;;;;;;24.27;21.73;;;;;;;9.61;100.00;99893.81;5091008;28;20082;-58
2023/04/24 00:31:07;;;;;;;25.95;21.92;;;;;;;9.47;100.00;99894.84;5092005;28;20024;-58
2023/04/24 00:33:32;;;;;;;25.98;22.25;;;;;;;9.47;100.00;99901.03;5091014;28;20042;-58
2023/04/24 00:35:58;;;;;;;27.40;22.45;;;;;;;9.44;100.00;99900.38;5090494;28;20379;-58
2023/04/24 00:38:23;;;;;;;25.17;22.75;;;;;;;9.36;100.00;99903.63;5091876;28;20026;-58
2023/04/24 00:40:50;;;;;;;25.02;22.50;;;;;;;9.38;100.00;99906.97;5090885;28;20073;-58
2023/04/24 00:43:16;;;;;;;26.63;23.83;;;;;;;9.33;100.00;99904.69;5090655;28;20020;-58
2023/04/24 00:45:41;;;;;;;26.27;23.45;;;;;;;9.39;100.00;99898.06;5092227;28;20434;-59
2023/04/24 00:48:07;;;;;;;30.73;24.63;;;;;;;9.34;100.00;99913.47;5090623;28;20020;-58
2023/04/24 00:50:33;;;;;;;28.80;23.67;;;;;;;9.30;100.00;99904.91;5091713;28;20111;-58
2023/04/24 00:52:58;;;;;;;26.35;22.45;;;;;;;9.29;100.00;99903.22;5091425;28;20437;-58
2023/04/24 00:55:25;;;;;;;27.63;24.70;;;;;;;9.24;100.00;99897.41;5091982;28;20020;-58
2023/04/24 00:57:51;;;;;;;27.85;24.83;;;;;;;9.25;100.00;99898.25;5091704;28;20070;-58
2023/04/24 01:00:17;;;;;;;34.90;24.88;;;;;;;9.27;100.00;99898.97;5073834;28;20040;-58
2023/04/24 01:02:44;;;;;;;35.65;24.38;;;;;;;9.30;100.00;99909.38;5074082;28;20028;-58
2023/04/24 01:05:12;;;;;;;27.23;23.55;;;;;;;9.27;100.00;99904.28;5091651;28;20460;-58
2023/04/24 01:07:38;;;;;;;28.73;25.75;;;;;;;9.30;100.00;99899.59;5090376;28;20020;-58
2023/04/24 01:10:04;;;;;;;31.30;26.17;;;;;;;9.23;100.00;99895.69;5091702;28;20028;-58
2023/04/24 01:12:30;;;;;;;32.58;25.15;;;;;;;9.22;100.00;99901.97;5090108;28;20020;-58
2023/04/24 01:14:56;;;;;;;28.00;25.23;;;;;;;9.20;100.00;99895.06;5091974;28;20107;-58
2023/04/24 01:17:22;;;;;;;28.55;24.73;;;;;;;9.20;100.00;99903.88;5091670;28;20115;-58
2023/04/24 01:19:47;;;;;;;29.75;26.17;;;;;;;9.19;100.00;99901.34;5091711;28;20099;-58
2023/04/24 01:22:18;;;;;;;29.05;25.90;;;;;;;9.23;100.00;99894.84;5091025;28;20028;-58
2023/04/24 01:24:45;;;;;;;29.23;26.13;;;;;;;9.12;100.00;99897.41;5091726;28;20024;-58
2023/04/24 01:27:12;;;;;;;29.58;26.40;;;;;;;9.12;100.00;99897.41;5091756;28;20062;-58
2023/04/24 01:29:38;;;;;;;32.22;28.65;;;;;;;9.14;100.00;99893.69;5090452;28;20028;-58
2023/04/24 01:32:04;;;;;;;29.67;26.77;;;;;;;9.07;100.00;99895.97;5091577;28;20371;-58
2023/04/24 01:34:30;;;;;;;31.52;28.23;;;;;;;9.05;100.00;99897.03;5091430;28;20035;-58
2023/04/24 01:36:56;;;;;;;35.17;29.65;;;;;;;9.03;100.00;99896.28;5091143;28;20017;-58
2023/04/24 01:39:25;;;;;;;33.25;29.83;;;;;;;9.05;100.00;99899.69;5091168;28;20024;-59
2023/04/24 01:41:51;;;;;;;34.60;30.02;;;;;;;8.97;100.00;99886.97;5091446;28;20551;-58
2023/04/24 01:44:17;;;;;;;36.40;31.85;;;;;;;9.01;100.00;99896.41;5091560;28;20107;-58
2023/04/24 01:46:43;;;;;;;33.50;29.92;;;;;;;9.05;100.00;99902.31;5091349;28;20024;-58
2023/04/24 01:49:08;;;;;;;34.38;31.08;;;;;;;9.00;100.00;99897.38;5091459;28;20041;-58
2023/04/24 01:51:34;;;;;;;36.45;32.08;;;;;;;9.00;100.00;99892.06;5091190;28;20034;-59
2023/04/24 01:53:59;;;;;;;36.28;32.05;;;;;;;8.95;100.00;99893.34;5091010;28;20024;-58
2023/04/24 01:56:25;;;;;;;37.30;33.17;;;;;;;8.88;100.00;99890.28;5091168;28;20035;-58
2023/04/24 01:58:53;;;;;;;37.42;32.80;;;;;;;8.89;100.00;99891.16;5090127;28;20032;-58
2023/04/24 02:01:20;;;;;;;37.70;31.55;;;;;;;8.92;100.00;99904.19;5090177;28;20024;-59
2023/04/24 02:03:45;;;;;;;36.10;32.25;;;;;;;8.88;100.00;99890.28;5093413;28;20036;-58
2023/04/24 02:06:11;;;;;;;35.47;31.80;;;;;;;8.91;100.00;99910.41;5088513;28;20766;-59
2023/04/24 02:08:36;;;;;;;35.90;32.42;;;;;;;8.91;100.00;99913.91;5110481;28;20038;-58
2023/04/24 02:11:04;;;;;;;35.33;31.73;;;;;;;8.85;100.00;99909.91;5113539;28;20101;-58
2023/04/24 02:13:32;;;;;;;37.33;33.47;;;;;;;8.81;100.00;99900.47;5110073;28;20051;-58
2023/04/24 02:15:58;;;;;;;35.45;31.58;;;;;;;8.86;100.00;99924.03;5083617;28;20028;-58
2023/04/24 02:18:24;;;;;;;36.05;31.92;;;;;;;8.69;100.00;99889.91;5113644;28;20035;-58
2023/04/24 02:20:49;;;;;;;34.10;30.73;;;;;;;8.79;100.00;99918.28;5112057;28;20027;-58
2023/04/24 02:23:15;;;;;;;35.25;31.58;;;;;;;8.84;100.00;99925.91;5109384;28;20035;-58
2023/04/24 02:25:40;;;;;;;35.75;32.25;;;;;;;8.81;100.00;99926.13;5111763;28;20028;-58
2023/04/24 02:28:06;;;;;;;35.78;32.08;;;;;;;8.84;100.00;99915.31;5113235;28;20058;-58
2023/04/24 02:30:31;;;;;;;34.22;30.88;;;;;;;8.90;100.00;99912.22;5113166;28;20023;-58
2023/04/24 02:32:57;;;;;;;35.60;31.85;;;;;;;8.79;100.00;99894.41;5113032;28;20024;-58
2023/04/24 02:35:22;;;;;;;34.53;30.98;;;;;;;8.77;100.00;99900.81;5113003;28;20055;-58
2023/04/24 02:37:47;;;;;;;35.63;32.20;;;;;;;8.88;100.00;99908.81;5102265;28;20081;-58
2023/04/24 02:40:13;;;;;;;33.67;30.13;;;;;;;8.76;100.00;99905.25;5101458;28;20118;-58
2023/04/24 02:42:41;;;;;;;34.55;31.20;;;;;;;8.79;100.00;99902.38;5114715;28;20023;-58
2023/04/24 02:45:06;;;;;;;33.95;30.38;;;;;;;8.73;100.00;99902.81;5112833;28;20027;-58
2023/04/24 02:47:32;;;;;;;34.83;31.02;;;;;;;8.66;100.00;99890.97;5093487;28;20156;-58
2023/04/24 02:49:57;;;;;;;34.85;31.27;;;;;;;8.73;100.00;99905.47;5107452;28;20443;-58
2023/04/24 02:52:23;;;;;;;33.25;29.88;;;;;;;8.77;100.00;99893.69;5108402;28;20035;-58
2023/04/24 02:54:48;;;;;;;35.08;31.65;;;;;;;8.78;100.00;99894.53;5112823;28;20117;-58
2023/04/24 02:57:13;;;;;;;35.25;31.63;;;;;;;8.72;100.00;99903.78;5110344;28;20089;-58
2023/04/24 02:59:39;;;;;;;35.35;31.75;;;;;;;8.66;100.00;99883.00;5111202;28;20032;-58
2023/04/24 03:02:05;;;;;;;34.40;30.98;;;;;;;8.74;100.00;99893.09;5111354;28;20031;-58
2023/04/24 03:04:31;;;;;;;34.10;30.83;;;;;;;8.72;100.00;99887.88;5110742;28;20482;-58
2023/04/24 03:06:57;;;;;;;35.03;31.38;;;;;;;8.69;100.00;99884.59;5109563;28;20030;-58
2023/04/24 03:09:22;;;;;;;34.03;30.35;;;;;;;8.70;100.00;99891.59;5111161;28;20118;-58
2023/04/24 03:11:49;;;;;;;34.38;30.77;;;;;;;8.75;100.00;99877.06;5114140;28;20102;-58
2023/04/24 03:14:14;;;;;;;33.10;29.90;;;;;;;8.73;100.00;99900.16;5112448;28;20047;-58
2023/04/24 03:16:41;;;;;;;34.65;30.85;;;;;;;8.77;100.00;99887.56;5111489;28;20043;-58
2023/04/24 03:19:06;;;;;;;32.35;29.35;;;;;;;8.73;100.00;99896.66;5113761;28;20085;-58
2023/04/24 03:21:32;;;;;;;30.30;27.50;;;;;;;8.72;100.00;99897.63;5111394;28;20031;-58
2023/04/24 03:23:58;;;;;;;30.27;26.90;;;;;;;8.70;100.00;99899.53;5113970;28;20098;-58
2023/04/24 03:26:23;;;;;;;30.13;27.23;;;;;;;8.69;100.00;99893.41;5097258;28;20486;-58
2023/04/24 03:28:48;;;;;;;31.30;28.00;;;;;;;8.60;100.00;99886.94;5093574;28;20067;-58
2023/04/24 03:31:15;;;;;;;30.27;27.20;;;;;;;8.69;100.00;99896.03;5091612;28;20032;-58
2023/04/24 03:33:40;;;;;;;29.95;26.77;;;;;;;8.66;100.00;99896.25;5092227;28;20024;-58
2023/04/24 03:36:06;;;;;;;28.52;25.55;;;;;;;8.59;100.00;99889.72;5092631;28;20035;-58
2023/04/24 03:38:31;;;;;;;28.55;25.73;;;;;;;8.64;100.00;99896.34;5092970;28;20786;-58
2023/04/24 03:40:57;;;;;;;28.25;25.30;;;;;;;8.64;100.00;99895.50;5091558;28;20454;-58
2023/04/24 03:43:22;;;;;;;28.73;25.92;;;;;;;8.69;100.00;99885.44;5092876;28;20036;-58
2023/04/24 03:45:50;;;;;;;26.80;23.75;;;;;;;8.60;100.00;99896.69;5091509;28;20111;-58
2023/04/24 03:48:16;;;;;;;28.38;24.40;;;;;;;8.61;100.00;99885.13;5091675;28;20027;-58
2023/04/24 03:50:41;;;;;;;29.10;26.17;;;;;;;8.60;100.00;99889.59;5092773;28;20027;-58
2023/04/24 03:53:06;;;;;;;28.85;25.85;;;;;;;8.59;100.00;99892.34;5091190;28;20391;-58
2023/04/24 03:55:32;;;;;;;28.15;25.20;;;;;;;8.58;100.00;99886.19;5091392;28;20043;-58
2023/04/24 03:57:58;;;;;;;26.27;23.55;;;;;;;8.60;100.00;99897.53;5092825;28;20099;-58
2023/04/24 04:00:23;;;;;;;26.77;24.08;;;;;;;8.56;100.00;99901.38;5092512;28;20024;-58
2023/04/24 04:02:48;;;;;;;27.67;23.60;;;;;;;8.63;100.00;99897.31;5092464;28;20368;-58
2023/04/24 04:05:14;;;;;;;26.58;23.88;;;;;;;8.62;100.00;99892.16;5092592;28;20466;-58
2023/04/24 04:07:39;;;;;;;26.58;23.92;;;;;;;8.59;100.00;99902.97;5092289;28;20031;-58
2023/04/24 04:10:06;;;;;;;26.48;24.08;;;;;;;8.54;100.00;99890.03;5092652;28;20110;-58
2023/04/24 04:12:32;;;;;;;27.20;24.60;;;;;;;8.51;100.00;99894.69;5090814;28;20024;-58
2023/04/24 04:14:57;;;;;;;27.77;24.85;;;;;;;8.50;100.00;99900.94;5092165;28;20039;-58
2023/04/24 04:17:23;;;;;;;25.80;23.42;;;;;;;8.49;100.00;99907.19;5091192;28;20027;-58
2023/04/24 04:19:50;;;;;;;26.88;24.45;;;;;;;8.47;100.00;99902.00;5092412;28;20020;-58
2023/04/24 04:22:16;;;;;;;27.85;25.25;;;;;;;8.53;100.00;99906.00;5091877;28;20028;-58
2023/04/24 04:24:41;;;;;;;27.80;25.02;;;;;;;8.48;100.00;99910.81;5092211;28;20035;-58
2023/04/24 04:27:08;;;;;;;24.73;22.52;;;;;;;8.44;100.00;99907.50;5092323;28;20028;-58
2023/04/24 04:29:35;;;;;;;27.08;24.58;;;;;;;8.43;100.00;99900.50;5092012;28;20409;-58
2023/04/24 04:32:02;;;;;;;26.30;24.00;;;;;;;8.43;100.00;99908.47;5092116;28;20034;-58
2023/04/24 04:34:27;;;;;;;26.95;24.38;;;;;;;8.41;100.00;99910.38;5093170;28;20055;-58
2023/04/24 04:36:53;;;;;;;25.67;23.42;;;;;;;8.46;100.00;99912.72;5092780;28;20058;-58
2023/04/24 04:39:18;;;;;;;26.27;24.10;;;;;;;8.41;100.00;99919.19;5090937;28;20027;-58
2023/04/24 04:41:46;;;;;;;25.42;23.33;;;;;;;8.43;100.00;99915.56;5095202;28;20390;-59
2023/04/24 04:44:12;;;;;;;26.90;24.58;;;;;;;8.36;100.00;99921.25;5090770;28;20024;-58
2023/04/24 04:46:38;;;;;;;25.13;23.08;;;;;;;8.39;100.00;99929.03;5091770;28;20020;-58
2023/04/24 04:49:08;;;;;;;24.65;22.55;;;;;;;8.33;100.00;99916.19;5090878;28;20073;-58
2023/04/24 04:51:33;;;;;;;;;;;;;;;8.44;100.00;99920.75;5091710;28;20039;-58
2023/04/24 04:53:58;;;;;;;18.27;16.33;;;;;;;8.40;100.00;99913.97;5092556;28;20050;-58
2023/04/24 04:56:24;;;;;;;24.88;22.90;;;;;;;8.38;100.00;99926.44;5107371;28;20028;-58
2023/04/24 04:58:50;;;;;;;24.40;22.45;;;;;;;8.28;100.00;99918.28;5091802;28;20088;-58
2023/04/24 05:01:15;;;;;;;22.80;21.00;;;;;;;8.34;100.00;99930.25;5091685;28;20024;-58
2023/04/24 05:03:41;;;;;;;22.38;20.13;;;;;;;8.32;100.00;99927.72;5091565;28;20026;-58
2023/04/24 05:06:09;;;;;;;22.08;20.17;;;;;;;8.32;100.00;99933.00;5091275;28;20376;-58
2023/04/24 05:08:35;;;;;;;21.50;19.80;;;;;;;8.35;100.00;99926.66;5091803;28;20016;-58
2023/04/24 05:11:01;;;;;;;20.98;19.08;;;;;;;8.36;100.00;99933.66;5090429;28;20034;-58
2023/04/24 05:13:26;;;;;;;20.23;18.48;;;;;;;8.42;100.00;99933.28;5091280;28;20071;-58
2023/04/24 05:15:51;;;;;;;19.85;18.13;;;;;;;8.38;100.00;99921.13;5090299;28;20024;-58
2023/04/24 05:18:17;;;;;;;19.00;17.50;;;;;;;8.33;100.00;99926.78;5091630;28;20024;-58
2023/04/24 05:20:43;;;;;;;16.83;15.52;;;;;;;8.45;100.00;99932.22;5090389;28;20020;-58
2023/04/24 05:23:09;;;;;;;16.10;14.73;;;;;;;8.37;100.00;99930.91;5091347;28;20524;-58
2023/04/24 05:25:35;;;;;;;14.70;13.45;;;;;;;8.33;100.00;99933.88;5091680;28;20039;-58
2023/04/24 05:28:02;;;;;;;10.30;9.40;;;;;;;8.38;100.00;99937.03;5093429;28;20027;-58
2023/04/24 05:30:27;;;;;;;12.65;11.65;;;;;;;8.34;100.00;99948.81;5089477;28;20078;-58
2023/04/24 05:32:53;;;;;;;11.52;10.63;;;;;;;8.28;100.00;99957.19;5090254;28;20024;-58
2023/04/24 05:35:18;;;;;;;10.68;9.88;;;;;;;8.19;100.00;99948.91;5093028;28;20051;-58
2023/04/24 05:37:47;;;;;;;8.93;8.05;;;;;;;8.13;100.00;99956.41;5093891;28;20031;-58
2023/04/24 05:40:12;;;;;;;9.35;8.40;;;;;;;8.09;100.00;99958.44;5095657;28;20077;-58
2023/04/24 05:42:38;;;;;;;9.95;8.90;;;;;;;8.05;100.00;99956.91;5095070;28;20024;-58
2023/04/24 05:45:04;;;;;;;8.60;7.22;;;;;;;8.08;100.00;99966.47;5094001;28;20035;-58
2023/04/24 05:47:29;;;;;;;9.25;8.50;;;;;;;8.12;100.00;99981.22;5093615;28;20455;-58
2023/04/24 05:49:55;;;;;;;8.27;7.53;;;;;;;8.05;100.00;99980.75;5095437;28;20093;-58
2023/04/24 05:52:23;;;;;;;8.77;8.07;;;;;;;8.10;100.00;99989.25;5094756;28;20023;-58
2023/04/24 05:54:48;;;;;;;9.05;6.22;;;;;;;8.13;100.00;99994.34;5094936;28;20034;-58
2023/04/24 05:57:16;;;;;;;11.75;8.13;;;;;;;8.14;100.00;99998.66;5092622;28;20023;-58
2023/04/24 05:59:41;;;;;;;8.52;7.72;;;;;;;8.00;100.00;99982.88;5097153;28;20030;-58
2023/04/24 06:02:07;;;;;;;7.88;7.20;;;;;;;8.06;100.00;99994.84;5093545;28;20020;-58
2023/04/24 06:04:33;;;;;;;9.55;8.65;;;;;;;7.96;100.00;99990.16;5094964;28;20028;-58
2023/04/24 06:06:59;;;;;;;9.20;8.52;;;;;;;8.04;100.00;99986.16;5106234;28;20023;-58
2023/04/24 06:09:24;;;;;;;10.00;9.20;;;;;;;8.07;100.00;99992.09;5106299;28;20016;-58
2023/04/24 06:11:52;;;;;;;10.70;9.70;;;;;;;8.07;100.00;100002.69;5114336;28;20054;-58
2023/04/24 06:14:18;;;;;;;12.77;11.60;;;;;;;8.01;100.00;100008.41;5115044;28;20130;-59
2023/04/24 06:16:43;;;;;;;12.13;11.02;;;;;;;8.01;100.00;100005.75;5108733;28;20110;-59
2023/04/24 06:19:09;;;;;;;12.63;11.35;;;;;;;7.98;100.00;100000.66;5111876;27;20019;-59
2023/04/24 06:21:34;;;;;;;9.93;9.02;;;;;;;8.00;100.00;100017.31;5114456;28;20054;-59
2023/04/24 06:24:00;;;;;;;13.55;12.18;;;;;;;8.02;100.00;100015.38;5107686;28;20103;-59
2023/04/24 06:26:26;;;;;;;10.32;9.43;;;;;;;7.90;100.00;100030.28;5110886;28;20020;-59
2023/04/24 06:28:53;;;;;;;14.60;13.25;;;;;;;7.95;100.00;100037.94;5111349;28;20024;-59
2023/04/24 06:31:19;;;;;;;15.95;14.27;;;;;;;7.92;100.00;100051.38;5111197;28;20509;-59
2023/04/24 06:33:44;;;;;;;13.48;11.52;;;;;;;7.90;100.00;100054.09;5113582;28;20032;-59
2023/04/24 06:36:10;;;;;;;16.90;15.38;;;;;;;7.89;100.00;100070.94;5114524;28;20038;-59
2023/04/24 06:38:35;;;;;;;16.70;15.30;;;;;;;7.83;100.00;100066.03;5113470;28;20026;-59
2023/04/24 06:41:01;;;;;;;16.42;15.05;;;;;;;7.78;100.00;100062.84;5109621;28;20034;-59
2023/04/24 06:43:26;;;;;;;14.75;12.05;;;;;;;7.85;100.00;100087.97;5114491;28;20016;-59
2023/04/24 06:45:52;;;;;;;18.45;16.58;;;;;;;7.87;100.00;100098.47;5109330;28;20085;-59
2023/04/24 06:48:17;;;;;;;19.05;17.45;;;;;;;7.86;100.00;100104.72;5092717;28;20024;-59
2023/04/24 06:50:42;;;;;;;17.52;15.63;;;;;;;7.83;100.00;100116.34;5091221;28;20024;-59
2023/04/24 06:53:10;;;;;;;21.08;16.73;;;;;;;7.87;100.00;100112.53;5113732;28;20051;-59
2023/04/24 06:55:36;;;;;;;22.27;19.90;;;;;;;7.81;100.00;100126.16;5112005;28;20024;-59
2023/04/24 06:58:01;;;;;;;17.95;16.13;;;;;;;7.82;100.00;100138.44;5109454;28;20019;-59
2023/04/24 07:00:27;;;;;;;19.23;15.30;;;;;;;7.92;100.00;100149.31;5108466;27;20024;-59
2023/04/24 07:02:52;;;;;;;25.38;22.80;;;;;;;7.76;100.00;100159.16;5086195;28;20008;-59
2023/04/24 07:05:19;;;;;;;24.23;21.83;;;;;;;7.74;100.00;100173.34;5100728;28;20432;-59
2023/04/24 07:07:47;;;;;;;25.60;22.05;;;;;;;7.69;100.00;100177.22;5085071;28;20467;-59
2023/04/24 07:10:12;;;;;;;22.65;19.13;;;;;;;7.78;100.00;100187.25;5096149;28;20040;-59
2023/04/24 07:12:38;;;;;;;26.65;23.70;;;;;;;7.72;100.00;100177.88;5091118;28;20084;-59
2023/04/24 07:15:05;;;;;;;25.45;19.38;;;;;;;7.82;100.00;100185.25;5091964;28;20044;-59
2023/04/24 07:17:32;;;;;;;24.10;19.10;;;;;;;7.84;100.00;100193.97;5090225;28;20043;-59
2023/04/24 07:19:58;;;;;;;24.25;21.85;;;;;;;7.74;100.00;100199.81;5102824;28;20032;-59
2023/04/24 07:22:23;;;;;;;26.13;22.70;;;;;;;7.78;100.00;100211.06;5095902;28;20027;-59
2023/04/24 07:24:49;;;;;;;22.10;19.52;;;;;;;7.89;100.00;100224.50;5092913;28;20028;-59
2023/04/24 07:27:17;;;;;;;25.63;22.80;;;;;;;7.88;100.00;100232.53;5094664;28;20394;-60
2023/04/24 07:29:42;;;;;;;23.92;21.55;;;;;;;7.88;100.00;100237.81;5102525;28;20420;-59
2023/04/24 07:32:08;;;;;;;25.52;19.98;;;;;;;7.94;100.00;100246.25;5101091;28;20028;-59
2023/04/24 07:34:34;;;;;;;26.33;21.48;;;;;;;7.91;100.00;100251.75;5093466;28;20104;-59
2023/04/24 07:37:00;;;;;;;23.02;19.60;;;;;;;7.90;100.00;100244.72;5091973;28;20081;-59
2023/04/24 07:39:26;;;;;;;23.40;17.02;;;;;;;7.83;100.00;100266.41;5092667;28;20493;-59
2023/04/24 07:41:51;;;;;;;24.23;15.75;;;;;;;7.79;100.00;100273.66;5091825;28;20035;-60
2023/04/24 07:44:17;;;;;;;20.98;11.40;;;;;;;7.78;100.00;100282.53;5100099;28;20035;-59
2023/04/24 07:46:42;;;;;;;24.00;15.50;;;;;;;7.77;100.00;100287.94;5096596;28;20027;-59
2023/04/24 07:49:08;;;;;;;22.90;13.48;;;;;;;7.77;100.00;100293.25;5094766;28;20024;-60
2023/04/24 07:51:37;;;;;;;20.30;10.52;;;;;;;7.78;100.00;100308.16;5091546;28;20027;-60
2023/04/24 07:54:05;;;;;;;21.83;14.35;;;;;;;7.77;100.00;100301.19;5092403;28;20035;-59
2023/04/24 07:56:31;;;;;;;22.92;13.82;;;;;;;7.87;100.00;100321.69;5103849;28;20035;-59
2023/04/24 07:58:56;;;;;;;21.38;12.20;;;;;;;7.94;100.00;100323.03;5091491;28;20080;-59
2023/04/24 08:01:21;;;;;;;26.98;14.98;;;;;;;7.90;100.00;100332.09;5089932;28;20020;-60
2023/04/24 08:03:47;;;;;;;27.17;14.55;;;;;;;7.92;100.00;100332.03;5104670;28;20024;-60
2023/04/24 08:06:15;;;;;;;19.13;11.88;;;;;;;7.97;100.00;100328.16;5100056;28;20027;-59
2023/04/24 08:08:40;;;;;;;26.20;13.57;;;;;;;8.05;100.00;100335.63;5109059;28;20404;-59
2023/04/24 08:11:06;;;;;;;26.52;16.15;;;;;;;7.99;100.00;100343.09;5112656;28;20107;-59
2023/04/24 08:13:31;;;;;;;29.25;16.50;;;;;;;8.02;100.00;100353.50;5107577;28;20036;-58
2023/04/24 08:15:56;;;;;;;21.80;13.68;;;;;;;8.11;100.00;100352.94;5112450;28;20034;-59
2023/04/24 08:18:25;;;;;;;27.83;16.20;;;;;;;8.05;100.00;100358.59;5112078;28;20495;-59
2023/04/24 08:20:50;;;;;;;31.98;15.82;;;;;;;8.02;100.00;100359.63;5112598;27;20072;-59
2023/04/24 08:23:15;;;;;;;29.58;17.65;;;;;;;8.09;100.00;100354.81;5112185;28;20028;-58
2023/04/24 08:25:41;;;;;;;32.70;17.17;;;;;;;8.10;100.00;100367.97;5112587;28;20094;-59
2023/04/24 08:28:09;;;;;;;17.85;11.32;;;;;;;8.11;100.00;100377.63;5112664;28;20020;-58
2023/04/24 08:30:34;;;;;;;26.67;15.00;;;;;;;8.07;100.00;100383.22;5112641;28;20023;-58
2023/04/24 08:33:00;;;;;;;24.25;15.27;;;;;;;8.09;100.00;100383.94;5111351;28;20500;-58
2023/04/24 08:35:25;;;;;;;21.75;14.55;;;;;;;8.06;100.00;100381.47;5112378;28;20076;-59
2023/04/24 08:37:53;;;;;;;29.08;13.88;;;;;;;8.11;100.00;100395.31;5112010;28;20546;-59
2023/04/24 08:40:22;;;;;;;22.15;12.68;;;;;;;8.16;100.00;100393.25;5111262;28;20166;-58
2023/04/24 08:42:47;;;;;;;26.50;13.38;;;;;;;8.12;100.00;100407.63;5111068;28;20387;-58
2023/04/24 08:45:13;;;;;;;25.33;13.13;;;;;;;8.18;100.00;100415.19;5111109;28;20038;-58
2023/04/24 08:47:40;;;;;;;22.05;10.52;;;;;;;8.20;100.00;100414.13;5090957;28;20115;-58
2023/04/24 08:50:07;;;;;;;30.45;15.05;;;;;;;8.18;100.00;100408.09;5090719;28;20027;-59
2023/04/24 08:52:34;;;;;;;27.65;13.27;;;;;;;8.30;100.00;100433.00;5091182;28;20483;-58
2023/04/24 08:55:01;;;;;;;24.65;10.88;;;;;;;8.54;100.00;100436.00;5092055;28;20093;-58
2023/04/24 08:57:26;;;;;;;25.42;12.25;;;;;;;8.60;100.00;100429.47;5092031;28;20052;-58
2023/04/24 08:59:53;;;;;;;28.55;13.48;;;;;;;8.49;100.00;100442.50;5090666;28;20020;-58
2023/04/24 09:02:22;;;;;;;21.95;11.77;;;;;;;8.35;100.00;100446.84;5091884;28;20048;-58
2023/04/24 09:04:49;;;;;;;21.17;12.05;;;;;;;8.23;100.00;100449.34;5091683;28;20024;-58
2023/04/24 09:07:17;;;;;;;22.42;11.55;;;;;;;8.22;100.00;100447.66;5091290;28;20081;-58
2023/04/24 09:09:44;;;;;;;22.92;9.95;;;;;;;8.23;100.00;100450.19;5090603;28;20114;-59
2023/04/24 09:12:09;;;;;;;25.63;10.95;;;;;;;8.11;100.00;100461.53;5093692;28;20116;-59
2023/04/24 09:14:39;;;;;;;23.58;9.57;;;;;;;8.06;100.00;100453.88;5095713;28;20160;-59
2023/04/24 09:17:07;;;;;;;14.88;8.57;;;;;;;8.16;100.00;100470.91;5095896;28;20023;-58
2023/04/24 09:19:32;;;;;;;21.58;8.90;;;;;;;8.32;100.00;100464.69;5094377;28;20066;-58
2023/04/24 09:21:57;;;;;;;25.02;11.07;;;;;;;8.38;100.00;100469.63;5095196;28;20062;-58
2023/04/24 09:24:23;;;;;;;19.58;10.68;;;;;;;8.44;100.00;100477.22;5094514;28;20127;-58
2023/04/24 09:26:57;;;;;;;20.55;10.52;;;;;;;8.46;100.00;100491.25;5094219;28;20024;-59
2023/04/24 09:29:25;;;;;;;18.00;9.80;;;;;;;8.39;100.00;100489.94;5094534;28;20027;-58
2023/04/24 09:31:50;;;;;;;17.27;9.98;;;;;;;8.29;100.00;100508.09;5095569;28;20372;-58
2023/04/24 09:34:24;;;;;;;19.15;10.05;;;;;;;8.19;100.00;100507.81;5095829;28;20027;-58
2023/04/24 09:36:51;;;;;;;22.13;11.23;;;;;;;8.15;100.00;100511.59;5093666;28;20031;-58
2023/04/24 09:39:17;;;;;;;15.10;10.30;;;;;;;8.11;100.00;100520.63;5095821;28;20035;-59
2023/04/24 09:42:00;;;;;;;21.67;10.30;;;;;;;7.99;100.00;100520.50;5094068;28;20059;-58
2023/04/24 09:44:29;;;;;;;20.13;10.40;;;;;;;7.99;100.00;100529.31;5094260;28;20173;-58
2023/04/24 09:46:59;;;;;;;15.02;8.02;;;;;;;8.02;100.00;100528.28;5095045;28;20031;-58
2023/04/24 09:49:29;;;;;;;14.63;9.32;;;;;;;8.09;100.00;100535.78;5093948;28;20031;-58
2023/04/24 09:52:08;;;;;;;;;;;;;;;8.28;99.65;100546.16;5095415;28;20032;-58
2023/04/24 09:54:33;;;;;;;11.65;6.63;;;;;;;8.28;97.40;100545.31;5095142;28;19919;-58
2023/04/24 09:57:02;;;;;;;16.38;9.38;;;;;;;8.33;97.79;100552.06;5095098;28;20383;-58
2023/04/24 09:59:30;;;;;;;13.80;8.43;;;;;;;8.54;96.93;100551.75;5094929;28;20468;-59
2023/04/24 10:01:57;;;;;;;17.55;9.45;;;;;;;8.80;98.44;100558.16;5094630;28;20024;-58
2023/04/24 10:04:27;;;;;;;13.75;9.20;;;;;;;9.09;98.46;100559.88;5094894;28;20016;-58
2023/04/24 10:06:54;;;;;;;15.35;8.73;;;;;;;9.12;93.30;100564.16;5093696;28;20035;-59
2023/04/24 10:09:26;;;;;;;18.58;9.20;;;;;;;9.21;93.97;100568.03;5093351;28;20069;-59
2023/04/24 10:11:54;;;;;;;10.27;7.30;;;;;;;9.25;92.10;100557.13;5095054;28;20024;-58
2023/04/24 10:14:25;;;;;;;14.80;8.68;;;;;;;9.25;91.67;100570.41;5093313;28;20097;-58
2023/04/24 10:16:53;;;;;;;10.88;7.78;;;;;;;9.13;90.06;100563.19;5093096;28;20019;-58
2023/04/24 10:19:18;;;;;;;15.45;8.30;;;;;;;9.07;91.94;100558.28;5093530;28;20027;-58
2023/04/24 10:21:47;;;;;;;11.65;7.20;;;;;;;8.98;90.61;100556.19;5094228;28;20024;-58
2023/04/24 10:24:15;;;;;;;14.63;7.10;;;;;;;9.00;93.19;100562.22;5093654;28;20391;-58
2023/04/24 10:26:40;;;;;;;11.60;7.45;;;;;;;8.83;89.47;100576.53;5094590;28;20027;-58
2023/04/24 10:29:09;;;;;;;10.63;6.25;;;;;;;8.69;87.11;100589.75;5094677;28;20020;-58
2023/04/24 10:31:36;;;;;;;13.80;6.97;;;;;;;8.53;90.71;100573.88;5094163;28;20073;-58
2023/04/24 10:34:03;;;;;;;9.80;7.07;;;;;;;8.59;91.75;100585.00;5093183;28;20490;-58
2023/04/24 10:36:32;;;;;;;9.15;6.78;;;;;;;8.60;90.49;100602.59;5093819;28;20127;-58
2023/04/24 10:39:00;;;;;;;10.20;5.93;;;;;;;8.56;88.34;100601.09;5093159;28;20027;-58
2023/04/24 10:41:26;;;;;;;9.15;6.78;;;;;;;8.71;90.36;100603.78;5094310;28;20028;-58
2023/04/24 10:44:09;;;;;;;8.50;6.53;;;;;;;8.75;87.18;100600.00;5094313;28;20364;-59
2023/04/24 10:46:35;;;;;;;8.80;6.88;;;;;;;8.85;87.03;100606.44;5093547;28;20020;-58
2023/04/24 10:49:08;;;;;;;8.45;6.85;;;;;;;8.84;85.73;100607.41;5093034;28;20028;-58
2023/04/24 10:51:47;;;;;;;9.40;6.80;;;;;;;8.94;86.22;100627.13;5093603;28;20028;-58
2023/04/24 10:54:28;;;;;;;7.72;6.72;;;;;;;9.04;88.33;100617.66;5094173;28;20154;-58
2023/04/24 10:57:22;;;;;;;11.80;7.25;;;;;;;9.11;85.59;100612.84;5093837;28;20032;-58
2023/04/24 10:59:54;;;;;;;11.02;6.88;;;;;;;9.15;85.08;100600.22;5092258;28;20092;-59
2023/04/24 11:02:38;;;;;;;8.27;6.70;;;;;;;9.28;86.16;100620.63;5093661;28;20478;-58
2023/04/24 11:05:04;;;;;;;9.90;7.05;;;;;;;9.08;81.89;100613.03;5093828;28;20024;-58
2023/04/24 11:07:30;;;;;;;8.05;5.70;;;;;;;9.17;83.44;100623.06;5096028;28;20259;-58
2023/04/24 11:10:00;;;;;;;7.25;5.90;;;;;;;9.14;83.91;100623.25;5109247;28;20039;-59
2023/04/24 11:12:26;;;;;;;7.43;6.57;;;;;;;9.07;82.56;100630.75;5106972;28;20015;-58
2023/04/24 11:14:59;;;;;;;7.45;6.05;;;;;;;9.01;84.29;100632.94;5099189;28;20048;-59